Time;durP1;ratioP1;P1;durP2;ratioP2;P2;SDS_P1;SDS_P2;PMS_P1;PMS_P2;Temp;Humidity;BMP_temperature;BMP_pressure;BME280_temperature;BME280_humidity;BME280_pressure;Samples;Min_cycle;Max_cycle;Signal;HPM_P1;HPM_P2
2022/08/29 00:01:21;;;;;;;;;;;;;;;16.24;56.77;101038.88;5091219;28;19926;-74
2022/08/29 00:04:25;;;;;;;;;;;;;;;16.07;57.42;101036.50;5091421;28;20319;-74
2022/08/29 00:07:29;;;;;;;;;;;;;;;16.08;56.93;101034.72;5091599;28;19939;-74
2022/08/29 00:10:33;;;;;;;;;;;;;;;15.97;56.83;101040.72;5091149;28;19923;-74
2022/08/29 00:13:37;;;;;;;;;;;;;;;15.85;57.84;101033.63;5091738;28;19996;-74
2022/08/29 00:16:40;;;;;;;;;;;;;;;15.92;57.53;101038.41;5091298;28;20027;-74
2022/08/29 00:19:43;;;;;;;;;;;;;;;15.88;57.28;101039.53;5090927;28;19927;-74
2022/08/29 00:22:47;;;;;;;;;;;;;;;15.82;57.48;101037.28;5090946;28;19986;-74
2022/08/29 00:25:50;;;;;;;;;;;;;;;15.84;57.89;101035.41;5090979;28;19966;-74
2022/08/29 00:28:53;;;;;;;;;;;;;;;15.81;57.42;101039.09;5091921;28;19922;-73
2022/08/29 00:31:56;;;;;;;;;;;;;;;15.66;58.18;101032.16;5091214;28;19923;-74
2022/08/29 00:34:59;;;;;;;;;;;;;;;15.62;58.58;101038.59;5090608;28;19977;-73
2022/08/29 00:38:03;;;;;;;;;;;;;;;15.57;58.71;101038.03;5089854;28;19923;-74
2022/08/29 00:41:06;;;;;;;;;;;;;;;15.59;58.68;101039.63;5089161;28;19982;-74
2022/08/29 00:44:10;;;;;;;;;;;;;;;15.52;58.44;101037.50;5089584;28;20015;-76
2022/08/29 00:47:15;;;;;;;;;;;;;;;15.52;58.15;101040.97;5090038;28;20064;-75
2022/08/29 00:50:31;;;;;;;;;;;;;;;15.44;58.58;101053.78;5089774;28;19966;-75
2022/08/29 00:53:59;;;;;;;;;;;;;;;15.50;58.77;101057.81;5090559;28;19931;-75
2022/08/29 00:57:03;;;;;;;;;;;;;;;15.34;59.43;101057.97;5090723;28;19923;-74
2022/08/29 01:00:07;;;;;;;;;;;;;;;15.37;58.79;101057.75;5090118;28;19927;-74
2022/08/29 01:03:11;;;;;;;;;;;;;;;15.32;59.11;101057.22;5089935;28;19923;-74
2022/08/29 01:06:14;;;;;;;;;;;;;;;15.31;59.34;101056.34;5089311;28;19938;-74
2022/08/29 01:09:19;;;;;;;;;;;;;;;15.26;58.99;101054.97;5089239;28;19965;-74
2022/08/29 01:12:22;;;;;;;;;;;;;;;15.11;59.56;101060.25;5089404;28;19923;-74
2022/08/29 01:15:29;;;;;;;;;;;;;;;15.06;59.99;101070.25;5089043;28;19958;-74
2022/08/29 01:18:34;;;;;;;;;;;;;;;14.98;60.07;101061.13;5088692;28;19962;-74
2022/08/29 01:21:46;;;;;;;;;;;;;;;15.06;60.06;101070.25;5088252;28;19963;-74
2022/08/29 01:24:51;;;;;;;;;;;;;;;14.96;60.42;101066.47;5089807;28;20227;-74
2022/08/29 01:28:04;;;;;;;;;;;;;;;15.04;59.78;101069.50;5089335;28;19982;-74
2022/08/29 01:31:15;;;;;;;;;;;;;;;14.96;59.88;101057.72;5089394;28;20397;-74
2022/08/29 01:34:19;;;;;;;;;;;;;;;14.76;60.39;101067.72;5090405;28;19927;-74
2022/08/29 01:37:27;;;;;;;;;;;;;;;14.77;60.82;101063.28;5089608;28;19927;-74
2022/08/29 01:40:33;;;;;;;;;;;;;;;14.72;60.96;101065.38;5089403;28;19927;-74
2022/08/29 01:43:45;;;;;;;;;;;;;;;14.78;60.80;101070.25;5089454;28;19941;-74
2022/08/29 01:46:49;;;;;;;;;;;;;;;14.69;60.88;101076.09;4731832;28;10000378;-74
2022/08/29 01:49:53;;;;;;;;;;;;;;;14.55;61.27;101079.53;5066632;28;19923;-74
2022/08/29 01:52:56;;;;;;;;;;;;;;;14.59;61.38;101081.06;5066995;28;19932;-74
2022/08/29 01:55:59;;;;;;;;;;;;;;;14.42;62.03;101082.00;5067177;28;19987;-74
2022/08/29 01:59:04;;;;;;;;;;;;;;;14.54;61.61;101083.94;5066880;28;20327;-74
2022/08/29 02:02:10;;;;;;;;;;;;;;;14.47;61.45;101077.34;5067204;28;19939;-74
2022/08/29 02:05:13;;;;;;;;;;;;;;;14.47;61.37;101085.22;5066744;28;19969;-74
2022/08/29 02:08:18;;;;;;;;;;;;;;;14.35;61.92;101083.31;5066618;28;19978;-74
2022/08/29 02:11:21;;;;;;;;;;;;;;;14.28;62.25;101085.47;5065883;28;19993;-74
2022/08/29 02:14:25;;;;;;;;;;;;;;;14.34;62.15;101093.00;5066357;28;20528;-74
2022/08/29 02:17:28;;;;;;;;;;;;;;;14.30;61.79;101091.50;5066781;28;19927;-74
2022/08/29 02:20:32;;;;;;;;;;;;;;;14.17;61.91;101096.63;5066706;28;19931;-74
2022/08/29 02:23:36;;;;;;;;;;;;;;;14.17;62.47;101093.16;5066551;28;20025;-73
2022/08/29 02:26:39;;;;;;;;;;;;;;;14.17;62.59;101103.69;5066461;28;19919;-74
2022/08/29 02:29:42;;;;;;;;;;;;;;;14.06;62.55;101104.28;5066437;28;20422;-74
2022/08/29 02:32:45;;;;;;;;;;;;;;;13.90;63.05;101103.47;5066051;28;19942;-74
2022/08/29 02:35:49;;;;;;;;;;;;;;;13.98;62.89;101101.25;5069247;28;19927;-74
2022/08/29 02:38:52;;;;;;;;;;;;;;;14.03;62.53;101104.44;5071020;28;19923;-73
2022/08/29 02:41:55;;;;;;;;;;;;;;;13.96;62.60;101095.22;5069539;28;20025;-74
2022/08/29 02:45:00;;;;;;;;;;;;;;;13.99;62.55;101097.69;5070186;28;19928;-74
2022/08/29 02:48:03;;;;;;;;;;;;;;;13.98;62.38;101093.38;5083728;28;19931;-74
2022/08/29 02:51:06;;;;;;;;;;;;;;;13.94;62.58;101091.84;5088364;28;19926;-74
2022/08/29 02:54:10;;;;;;;;;;;;;;;13.96;62.46;101097.84;5088938;28;19938;-73
2022/08/29 02:57:14;;;;;;;;;;;;;;;13.94;61.91;101099.72;5089480;28;19923;-74
2022/08/29 03:00:20;;;;;;;;;;;;;;;13.95;62.02;101094.38;5088602;28;19931;-74
2022/08/29 03:03:23;;;;;;;;;;;;;;;13.88;62.28;101094.81;5088025;28;19989;-73
2022/08/29 03:06:26;;;;;;;;;;;;;;;13.83;62.91;101110.00;5088256;28;20462;-74
2022/08/29 03:09:30;;;;;;;;;;;;;;;13.80;63.28;101102.28;5087594;28;20395;-74
2022/08/29 03:12:34;;;;;;;;;;;;;;;13.81;63.44;101103.97;5087465;28;19939;-73
2022/08/29 03:15:37;;;;;;;;;;;;;;;13.87;62.80;101108.91;5088499;28;19968;-73
2022/08/29 03:18:41;;;;;;;;;;;;;;;13.75;62.91;101110.44;5088334;28;19942;-73
2022/08/29 03:21:44;;;;;;;;;;;;;;;13.68;63.34;101103.81;5088031;28;19951;-73
2022/08/29 03:24:47;;;;;;;;;;;;;;;13.64;63.71;101097.06;5087592;28;20435;-73
2022/08/29 03:27:51;;;;;;;;;;;;;;;13.55;64.03;101094.94;5086590;28;19939;-74
2022/08/29 03:30:55;;;;;;;;;;;;;;;13.51;64.30;101089.00;5087637;28;19970;-74
2022/08/29 03:33:58;;;;;;;;;;;;;;;13.59;64.19;101092.06;5087768;28;19961;-74
2022/08/29 03:37:02;;;;;;;;;;;;;;;13.56;64.21;101089.63;5088172;28;19977;-74
2022/08/29 03:40:07;;;;;;;;;;;;;;;13.49;63.77;101086.44;5087662;28;20280;-73
2022/08/29 03:43:10;;;;;;;;;;;;;;;13.38;64.15;101088.84;5087375;28;19933;-74
2022/08/29 03:46:13;;;;;;;;;;;;;;;13.34;64.71;101094.34;5086760;28;19927;-76
2022/08/29 03:49:16;;;;;;;;;;;;;;;13.39;64.55;101090.53;5067161;28;20450;-75
2022/08/29 03:52:19;;;;;;;;;;;;;;;13.43;64.05;101099.09;5067436;28;19966;-74
2022/08/29 03:55:22;;;;;;;;;;;;;;;13.42;64.12;101100.03;5068912;28;19942;-74
2022/08/29 03:58:27;;;;;;;;;;;;;;;13.25;65.01;101100.94;5076501;28;19931;-74
2022/08/29 04:01:30;;;;;;;;;;;;;;;13.19;65.24;101103.88;5086807;28;19930;-76
2022/08/29 04:07:57;;;;;;;;;;;;;;;13.26;64.84;101103.47;5067238;28;19986;-75
2022/08/29 04:11:07;;;;;;;;;;;;;;;13.15;65.23;101095.31;5067174;28;20366;-75
2022/08/29 04:14:12;;;;;;;;;;;;;;;13.15;65.02;101094.47;5070330;28;20112;-75
2022/08/29 04:17:15;;;;;;;;;;;;;;;13.06;65.11;101103.69;5071430;28;19926;-76
2022/08/29 04:20:18;;;;;;;;;;;;;;;12.91;65.73;101101.88;5069198;28;19973;-76
2022/08/29 04:23:21;;;;;;;;;;;;;;;12.94;65.60;101102.53;5086032;28;19923;-75
2022/08/29 04:26:24;;;;;;;;;;;;;;;12.95;65.19;101098.13;5090526;28;19927;-76
2022/08/29 04:29:27;;;;;;;;;;;;;;;12.84;65.54;101098.72;5089235;28;20111;-79
2022/08/29 04:32:29;;;;;;;;;;;;;;;13.01;65.20;101097.81;5089738;28;19923;-77
2022/08/29 04:35:36;;;;;;;;;;;;;;;13.06;64.98;101101.06;5089915;28;19947;-78
2022/08/29 04:38:39;;;;;;;;;;;;;;;12.98;64.92;101108.47;5089873;28;19922;-78
2022/08/29 04:41:42;;;;;;;;;;;;;;;12.83;65.47;101111.91;5089167;28;20299;-75
2022/08/29 04:44:46;;;;;;;;;;;;;;;12.84;65.79;101111.84;5090041;28;19970;-75
2022/08/29 04:47:50;;;;;;;;;;;;;;;12.87;66.13;101121.34;5090134;28;19964;-75
2022/08/29 04:50:56;;;;;;;;;;;;;;;12.95;65.53;101125.22;5089629;28;20354;-75
2022/08/29 04:54:00;;;;;;;;;;;;;;;12.77;66.13;101127.06;5089786;28;19922;-75
2022/08/29 04:57:04;;;;;;;;;;;;;;;12.80;66.07;101126.91;5088439;28;19935;-75
2022/08/29 05:00:12;;;;;;;;;;;;;;;12.75;66.26;101139.41;5090026;28;20571;-72
2022/08/29 05:03:16;;;;;;;;;;;;;;;12.86;66.06;101131.00;5089911;28;20323;-74
2022/08/29 05:06:20;;;;;;;;;;;;;;;12.88;66.10;101138.78;5090481;28;20322;-73
2022/08/29 05:09:23;;;;;;;;;;;;;;;12.85;66.06;101137.16;5089982;28;19924;-73
2022/08/29 05:12:28;;;;;;;;;;;;;;;12.74;66.67;101145.59;5089784;28;20009;-73
2022/08/29 05:15:31;;;;;;;;;;;;;;;12.73;66.79;101148.28;5088515;28;20423;-71
2022/08/29 05:18:34;;;;;;;;;;;;;;;12.51;68.16;101151.16;5089567;28;19977;-67
2022/08/29 05:21:38;;;;;;;;;;;;;;;12.28;68.86;101157.53;5088408;28;20024;-67
2022/08/29 05:24:42;;;;;;;;;;;;;;;12.41;69.27;101163.91;5088897;28;19968;-67
2022/08/29 05:27:45;;;;;;;;;;;;;;;12.43;69.16;101158.56;5089281;28;19980;-68
2022/08/29 05:30:48;;;;;;;;;;;;;;;12.60;68.87;101160.31;5088653;28;19985;-67
2022/08/29 05:33:52;;;;;;;;;;;;;;;12.70;68.86;101161.56;5088123;28;20395;-67
2022/08/29 05:36:55;;;;;;;;;;;;;;;12.77;68.80;101152.47;5087530;28;20005;-74
2022/08/29 05:43:47;;;;;;;;;;;;;;;12.66;70.47;101165.25;5068208;28;20122;-86
2022/08/29 05:46:50;;;;;;;;;;;;;;;12.79;68.17;101151.47;5087587;28;20371;-82
2022/08/29 05:49:52;;;;;;;;;;;;;;;13.05;66.48;101149.25;5075315;28;19972;-79
2022/08/29 05:52:55;;;;;;;;;;;;;;;13.09;66.55;101148.16;5088504;28;19923;-83
2022/08/29 05:55:58;;;;;;;;;;;;;;;13.01;67.24;101151.16;5087471;28;19924;-79
2022/08/29 05:59:02;;;;;;;;;;;;;;;12.93;68.07;101152.53;5067363;28;20339;-74
2022/08/29 06:02:09;;;;;;;;;;;;;;;13.15;67.05;101152.25;5067225;28;20387;-77
2022/08/29 06:05:11;;;;;;;;;;;;;;;13.28;66.56;101147.22;5067256;28;19973;-83
2022/08/29 06:08:14;;;;;;;;;;;;;;;13.29;66.63;101151.53;5083956;28;19974;-83
2022/08/29 06:11:19;;;;;;;;;;;;;;;13.48;65.79;101144.34;5088097;28;19923;-81
2022/08/29 06:14:22;;;;;;;;;;;;;;;13.72;64.96;101142.16;5088200;28;20135;-79
2022/08/29 06:17:27;;;;;;;;;;;;;;;13.56;65.52;101149.16;5087856;28;19957;-88
2022/08/29 06:20:30;;;;;;;;;;;;;;;13.79;65.02;101143.50;5087421;28;19931;-87
2022/08/29 06:23:33;;;;;;;;;;;;;;;13.93;64.16;101145.34;5079551;28;20401;-79
2022/08/29 06:26:37;;;;;;;;;;;;;;;14.13;63.15;101142.44;5088227;28;20004;-87
2022/08/29 06:29:40;;;;;;;;;;;;;;;14.12;64.23;101148.63;5087659;28;20657;-77
2022/08/29 06:32:43;;;;;;;;;;;;;;;14.23;63.72;101152.44;5244219;22;20300;-85
2022/08/29 06:40:54;;;;;;;;;;;;;;;14.50;63.77;101155.25;5029536;28;19921;-84
2022/08/29 06:47:51;;;;;;;;;;;;;;;14.49;63.39;101158.84;5027238;28;19955;-85
2022/08/29 06:55:26;;;;;;;;;;;;;;;15.09;61.62;101170.16;5022394;28;19924;-71
2022/08/29 06:58:29;;;;;;;;;;;;;;;15.26;60.98;101163.00;5026016;28;20294;-67
2022/08/29 07:01:33;;;;;;;;;;;;;;;15.53;59.93;101163.91;5021779;28;19979;-68
2022/08/29 07:04:36;;;;;;;;;;;;;;;15.68;59.96;101161.28;5015988;28;19924;-68
2022/08/29 07:07:42;;;;;;;;;;;;;;;15.83;59.67;101157.66;5014525;28;19975;-69
2022/08/29 07:10:45;;;;;;;;;;;;;;;15.93;59.07;101156.13;5016575;28;19928;-68
2022/08/29 07:13:48;;;;;;;;;;;;;;;16.11;58.29;101163.78;5027373;28;19925;-68
2022/08/29 07:16:51;;;;;;;;;;;;;;;16.24;59.04;101159.38;5028071;28;19948;-64
2022/08/29 07:19:54;;;;;;;;;;;;;;;16.48;57.72;101156.94;5027144;28;19956;-71
2022/08/29 07:22:57;;;;;;;;;;;;;;;16.63;57.34;101155.91;5025045;28;20331;-71
2022/08/29 07:26:35;;;;;;;;;;;;;;;16.76;56.93;101150.66;5031081;28;19924;-71
2022/08/29 07:29:38;;;;;;;;;;;;;;;16.85;56.44;101149.19;5025011;28;19924;-71
2022/08/29 07:32:44;;;;;;;;;;;;;;;17.00;56.21;101149.91;5028346;28;19927;-71
2022/08/29 07:35:48;;;;;;;;;;;;;;;17.14;56.29;101141.88;5011019;28;19929;-71
2022/08/29 07:38:51;;;;;;;;;;;;;;;17.21;55.98;101137.84;5010118;28;19968;-71
2022/08/29 07:41:54;;;;;;;;;;;;;;;17.29;55.56;101130.22;5009991;28;20459;-70
2022/08/29 07:44:57;;;;;;;;;;;;;;;17.39;55.09;101138.38;5009627;28;20020;-69
2022/08/29 07:48:00;;;;;;;;;;;;;;;17.41;54.69;101131.16;5009962;28;19927;-70
2022/08/29 07:51:07;;;;;;;;;;;;;;;17.44;54.66;101126.47;5010372;28;19924;-70
2022/08/29 07:54:15;;;;;;;;;;;;;;;17.52;54.93;101127.75;5007376;28;19964;-70
2022/08/29 07:57:18;;;;;;;;;;;;;;;17.57;54.42;101128.25;5010375;28;19968;-70
2022/08/29 08:00:21;;;;;;;;;;;;;;;17.72;53.84;101129.78;5008760;28;20503;-70
2022/08/29 08:03:25;;;;;;;;;;;;;;;17.81;53.82;101133.59;5009600;28;19928;-80
2022/08/29 08:06:28;;;;;;;;;;;;;;;17.75;53.59;101134.03;5011398;28;19920;-74
2022/08/29 08:09:32;;;;;;;;;;;;;;;17.81;54.00;101129.16;4989525;28;20021;-69
2022/08/29 08:12:35;;;;;;;;;;;;;;;17.87;53.46;101131.34;4991000;28;19976;-70
2022/08/29 08:15:38;;;;;;;;;;;;;;;17.80;53.86;101131.91;4991487;28;20020;-73
2022/08/29 08:18:42;;;;;;;;;;;;;;;17.80;53.56;101130.09;4988811;28;19991;-72
2022/08/29 08:21:49;;;;;;;;;;;;;;;17.77;53.75;101133.00;4986633;28;19963;-73
2022/08/29 08:24:52;;;;;;;;;;;;;;;17.71;53.32;101136.06;4987560;28;20392;-71
2022/08/29 08:27:57;;;;;;;;;;;;;;;17.82;53.47;101136.13;5004368;28;20005;-71
2022/08/29 08:31:03;;;;;;;;;;;;;;;17.94;53.58;101138.84;5007040;28;20384;-70
2022/08/29 08:34:06;;;;;;;;;;;;;;;18.19;53.00;101138.72;4993924;28;19932;-71
2022/08/29 08:37:10;;;;;;;;;;;;;;;18.30;52.44;101136.09;4990249;28;19944;-72
2022/08/29 08:40:21;;;;;;;;;;;;;;;18.41;51.94;101137.09;4988995;28;19976;-72
2022/08/29 08:43:31;;;;;;;;;;;;;;;18.56;51.50;101131.47;4989425;28;20019;-73
2022/08/29 08:46:46;;;;;;;;;;;;;;;18.64;51.41;101135.38;4989494;28;20406;-74
2022/08/29 08:50:00;;;;;;;;;;;;;;;18.83;51.74;101126.88;4989733;28;20184;-73
2022/08/29 08:53:06;;;;;;;;;;;;;;;18.90;50.81;101133.38;5000732;28;20009;-73
2022/08/29 08:56:21;;;;;;;;;;;;;;;18.92;50.68;101129.66;4989896;28;20013;-74
2022/08/29 08:59:30;;;;;;;;;;;;;;;18.96;51.11;101132.91;4989150;28;19984;-76
2022/08/29 09:02:41;;;;;;;;;;;;;;;18.94;51.17;101135.66;4989095;28;19925;-72
2022/08/29 09:05:53;;;;;;;;;;;;;;;18.74;49.88;101133.72;4988487;28;20015;-73
2022/08/29 09:09:00;;;;;;;;;;;;;;;18.70;50.68;101130.44;4988576;28;20462;-73
2022/08/29 09:12:24;;;;;;;;;;;;;;;18.79;50.58;101129.75;5005267;28;20360;-73
2022/08/29 09:15:58;;;;;;;;;;;;;;;18.91;50.81;101129.75;5009978;28;19971;-75
2022/08/29 09:19:04;;;;;;;;;;;;;;;19.07;50.09;101127.59;5011968;28;20310;-73
2022/08/29 09:22:14;;;;;;;;;;;;;;;19.13;50.23;101129.78;4999288;28;20360;-73
2022/08/29 09:25:17;;;;;;;;;;;;;;;19.17;49.80;101130.38;5009827;28;20306;-76
2022/08/29 09:28:21;;;;;;;;;;;;;;;19.22;49.35;101137.00;5007614;28;20181;-74
2022/08/29 09:31:25;;;;;;;;;;;;;;;19.04;48.54;101119.88;5009016;28;20032;-73
2022/08/29 09:34:36;;;;;;;;;;;;;;;19.27;49.51;101123.38;5005866;28;19995;-78
2022/08/29 09:37:39;;;;;;;;;;;;;;;19.39;48.61;101124.22;5006197;28;19925;-73
2022/08/29 09:40:50;;;;;;;;;;;;;;;19.44;48.46;101127.34;5006221;28;19975;-74
2022/08/29 09:43:56;;;;;;;;;;;;;;;19.66;48.21;101119.38;5006262;28;19975;-74
2022/08/29 09:51:34;;;;;;;;;;;;;;;19.83;46.81;101119.81;5009847;28;19940;-74
2022/08/29 09:54:51;;;;;;;;;;;;;;;20.02;46.34;101111.19;5006082;28;19932;-74
2022/08/29 09:58:01;;;;;;;;;;;;;;;20.14;46.06;101116.31;4996199;28;19971;-74
2022/08/29 10:01:08;;;;;;;;;;;;;;;20.15;45.75;101117.97;5007484;28;20020;-74
2022/08/29 10:04:12;;;;;;;;;;;;;;;20.26;46.01;101108.28;5008110;28;19968;-74
2022/08/29 10:07:17;;;;;;;;;;;;;;;20.35;44.38;101103.03;5009664;28;20440;-74
2022/08/29 10:10:22;;;;;;;;;;;;;;;20.40;44.23;101106.16;5007093;28;19999;-74
2022/08/29 10:13:30;;;;;;;;;;;;;;;20.35;44.17;101104.84;5007381;28;19925;-74
2022/08/29 10:16:34;;;;;;;;;;;;;;;20.33;44.52;101101.50;5008300;28;19924;-74
2022/08/29 10:19:37;;;;;;;;;;;;;;;20.50;45.19;101103.56;5007353;28;19928;-74
2022/08/29 10:23:02;;;;;;;;;;;;;;;20.57;44.37;101099.44;5006745;28;20025;-75
2022/08/29 10:26:14;;;;;;;;;;;;;;;20.59;43.52;101092.19;5008240;28;19993;-75
2022/08/29 10:29:31;;;;;;;;;;;;;;;20.61;43.27;101087.59;5006879;28;19923;-75
2022/08/29 10:32:43;;;;;;;;;;;;;;;20.81;43.80;101093.84;5007313;28;20392;-75
2022/08/29 10:36:05;;;;;;;;;;;;;;;20.88;43.03;101081.69;5008616;28;19971;-75
2022/08/29 10:39:13;;;;;;;;;;;;;;;21.05;42.75;101085.53;5008615;28;19928;-75
2022/08/29 10:42:20;;;;;;;;;;;;;;;21.12;42.97;101073.41;5008300;28;19925;-75
2022/08/29 10:45:29;;;;;;;;;;;;;;;21.12;42.26;101070.75;5008070;28;20392;-75
2022/08/29 10:48:38;;;;;;;;;;;;;;;21.07;42.61;101062.31;5008359;28;19943;-75
2022/08/29 10:52:00;;;;;;;;;;;;;;;21.13;42.72;101061.78;5007707;28;19924;-75
2022/08/29 10:55:10;;;;;;;;;;;;;;;21.53;41.54;101044.94;5009133;28;20413;-75
2022/08/29 10:58:15;;;;;;;;;;;;;;;21.65;41.30;101042.16;5012699;28;20019;-75
2022/08/29 11:01:22;;;;;;;;;;;;;;;21.64;41.27;101038.66;5012496;28;19971;-75
2022/08/29 11:04:30;;;;;;;;;;;;;;;21.61;41.35;101048.75;5004763;28;19971;-75
2022/08/29 11:07:40;;;;;;;;;;;;;;;21.84;41.59;101039.50;5012592;28;19975;-75
2022/08/29 11:10:48;;;;;;;;;;;;;;;22.20;40.22;101034.44;5011913;28;19956;-75
2022/08/29 11:14:16;;;;;;;;;;;;;;;22.41;40.18;101032.44;5010551;28;20019;-76
2022/08/29 11:17:22;;;;;;;;;;;;;;;22.50;39.99;101036.88;5009599;28;19924;-75
2022/08/29 11:20:29;;;;;;;;;;;;;;;22.40;39.04;101019.22;5009109;28;20124;-75
2022/08/29 11:27:28;;;;;;;;;;;;;;;22.56;39.55;101014.16;5010583;28;20377;-74
2022/08/29 11:30:35;;;;;;;;;;;;;;;22.76;38.61;101009.56;5011469;28;20020;-74
2022/08/29 11:33:38;;;;;;;;;;;;;;;22.63;39.01;101004.59;4999505;28;19933;-75
2022/08/29 11:37:00;;;;;;;;;;;;;;;22.71;39.07;101007.34;4990432;28;19972;-75
2022/08/29 11:40:29;;;;;;;;;;;;;;;22.91;38.61;101005.44;4991224;28;19929;-75
2022/08/29 11:43:37;;;;;;;;;;;;;;;23.06;38.71;101004.94;4990061;28;19964;-74
2022/08/29 11:46:42;;;;;;;;;;;;;;;23.16;38.73;101003.88;4990080;28;19925;-75
2022/08/29 11:49:47;;;;;;;;;;;;;;;23.25;38.46;100994.16;4990445;28;19977;-74
2022/08/29 11:52:53;;;;;;;;;;;;;;;23.21;38.34;100992.78;4990353;28;19968;-74
2022/08/29 11:56:12;;;;;;;;;;;;;;;23.50;37.99;100994.41;4991239;28;19924;-74
2022/08/29 11:59:33;;;;;;;;;;;;;;;23.53;37.55;100992.25;4989919;28;19924;-76
2022/08/29 12:02:38;;;;;;;;;;;;;;;23.72;37.09;100991.28;5004343;28;20020;-75
2022/08/29 12:05:58;;;;;;;;;;;;;;;23.82;37.40;100986.69;5007735;28;20370;-75
2022/08/29 12:09:01;;;;;;;;;;;;;;;23.92;36.86;100981.25;5010364;28;20059;-75
2022/08/29 12:12:04;;;;;;;;;;;;;;;23.99;36.95;100968.09;5010497;28;20485;-75
2022/08/29 12:15:26;;;;;;;;;;;;;;;23.88;37.03;100958.53;5009690;28;20405;-75
2022/08/29 12:18:31;;;;;;;;;;;;;;;24.02;36.80;100955.28;5009945;28;19924;-75
2022/08/29 12:21:37;;;;;;;;;;;;;;;24.23;35.53;100951.41;5009812;28;19929;-75
2022/08/29 12:24:41;;;;;;;;;;;;;;;24.19;36.07;100942.88;5010465;28;20009;-75
2022/08/29 12:28:04;;;;;;;;;;;;;;;24.46;35.97;100949.88;4990158;28;20432;-75
2022/08/29 12:31:16;;;;;;;;;;;;;;;24.59;35.42;100946.75;4989535;28;19924;-75
2022/08/29 12:34:21;;;;;;;;;;;;;;;24.95;34.53;100936.69;5004429;28;20071;-75
2022/08/29 12:37:32;;;;;;;;;;;;;;;25.44;34.23;100933.25;5009445;28;20436;-75
2022/08/29 12:40:43;;;;;;;;;;;;;;;25.90;33.62;100930.88;5003487;28;20024;-75
2022/08/29 12:43:50;;;;;;;;;;;;;;;25.99;32.48;100929.88;4989102;28;19925;-75
2022/08/29 12:46:59;;;;;;;;;;;;;;;26.32;32.33;100925.25;4995940;28;19925;-75
2022/08/29 12:50:15;;;;;;;;;;;;;;;26.79;30.98;100910.97;5009972;28;20440;-75
2022/08/29 12:53:29;;;;;;;;;;;;;;;27.20;30.44;100909.91;5010176;28;19925;-75
2022/08/29 12:56:32;;;;;;;;;;;;;;;27.56;29.88;100902.03;5009890;28;19975;-75
2022/08/29 12:59:42;;;;;;;;;;;;;;;27.65;30.07;100892.06;5009728;28;20572;-74
2022/08/29 13:02:54;;;;;;;;;;;;;;;27.97;29.34;100886.34;5009707;28;19924;-74
2022/08/29 13:06:02;;;;;;;;;;;;;;;28.38;28.62;100895.81;5009432;28;19921;-74
2022/08/29 13:09:06;;;;;;;;;;;;;;;28.33;28.64;100890.97;5009510;28;20052;-74
2022/08/29 13:12:29;;;;;;;;;;;;;;;28.60;28.35;100888.66;5009658;28;19924;-74
2022/08/29 13:15:32;;;;;;;;;;;;;;;28.92;27.98;100881.94;5010289;28;19944;-74
2022/08/29 13:18:36;;;;;;;;;;;;;;;29.14;27.52;100882.81;5009380;28;19925;-74
2022/08/29 13:21:39;;;;;;;;;;;;;;;29.09;27.27;100878.00;5009511;28;20055;-74
2022/08/29 13:24:42;;;;;;;;;;;;;;;29.84;26.48;100876.53;5009339;28;19939;-74
2022/08/29 13:27:47;;;;;;;;;;;;;;;30.11;26.13;100866.72;5009735;28;20008;-75
2022/08/29 13:31:09;;;;;;;;;;;;;;;29.70;26.07;100873.94;5009927;28;20388;-74
2022/08/29 13:34:16;;;;;;;;;;;;;;;29.55;26.79;100876.72;5008856;28;19933;-74
2022/08/29 13:37:27;;;;;;;;;;;;;;;29.47;26.41;100877.69;5009202;28;19925;-75
2022/08/29 13:40:46;;;;;;;;;;;;;;;30.91;25.06;100882.41;5008950;28;19932;-75
2022/08/29 13:43:49;;;;;;;;;;;;;;;32.72;22.21;100871.88;5009745;28;20009;-75
2022/08/29 13:46:59;;;;;;;;;;;;;;;35.70;18.89;100861.22;5009590;28;19979;-75
2022/08/29 13:50:05;;;;;;;;;;;;;;;39.04;16.37;100853.28;5009380;28;19987;-75
2022/08/29 13:53:09;;;;;;;;;;;;;;;38.74;16.30;100853.00;5008767;28;19944;-75
2022/08/29 13:56:20;;;;;;;;;;;;;;;37.79;16.72;100844.28;5008337;28;20357;-75
2022/08/29 13:59:25;;;;;;;;;;;;;;;38.88;16.55;100843.31;5007980;28;20383;-75
2022/08/29 14:02:29;;;;;;;;;;;;;;;37.90;16.72;100837.84;5008989;28;19980;-75
2022/08/29 14:05:35;;;;;;;;;;;;;;;36.35;18.14;100840.25;5008098;28;19968;-76
2022/08/29 14:08:38;;;;;;;;;;;;;;;37.31;17.26;100838.41;5007899;28;20019;-75
2022/08/29 14:11:41;;;;;;;;;;;;;;;35.84;18.27;100851.75;5009475;28;19960;-75
2022/08/29 14:14:44;;;;;;;;;;;;;;;32.62;21.40;100842.59;5009070;28;19928;-75
2022/08/29 14:17:48;;;;;;;;;;;;;;;32.84;21.73;100851.19;5009004;28;19940;-75
2022/08/29 14:20:51;;;;;;;;;;;;;;;33.50;21.09;100847.13;5008596;28;20293;-75
2022/08/29 14:27:46;;;;;;;;;;;;;;;32.47;22.33;100836.63;5006982;28;20034;-75
2022/08/29 14:30:49;;;;;;;;;;;;;;;31.55;23.10;100837.75;4989508;28;19992;-78
2022/08/29 14:33:52;;;;;;;;;;;;;;;35.00;20.42;100825.81;4991472;28;19929;-79
2022/08/29 14:36:55;;;;;;;;;;;;;;;34.81;19.79;100825.06;4992711;28;19976;-74
2022/08/29 14:39:59;;;;;;;;;;;;;;;31.10;23.90;100832.16;4993412;28;19960;-87
2022/08/29 14:43:03;;;;;;;;;;;;;;;32.10;25.06;100827.41;5007463;28;20748;-83
2022/08/29 14:46:08;;;;;;;;;;;;;;;35.54;19.73;100821.97;5013605;28;20020;-76
2022/08/29 14:49:11;;;;;;;;;;;;;;;32.81;22.52;100821.84;5012670;28;19971;-78
2022/08/29 14:52:14;;;;;;;;;;;;;;;33.42;21.35;100822.19;5002480;28;19923;-74
2022/08/29 14:55:18;;;;;;;;;;;;;;;33.39;21.02;100822.63;4993664;28;19940;-73
2022/08/29 14:58:21;;;;;;;;;;;;;;;38.78;16.52;100805.75;4993725;28;19925;-70
2022/08/29 15:05:52;;;;;;;;;;;;;;;33.21;21.31;100815.28;4992921;28;19972;-75
2022/08/29 15:08:57;;;;;;;;;;;;;;;34.42;19.51;100811.84;4992478;28;19924;-70
2022/08/29 15:12:00;;;;;;;;;;;;;;;37.40;17.50;100800.63;4993780;28;20429;-69
2022/08/29 15:15:04;;;;;;;;;;;;;;;41.26;13.89;100794.28;4993153;28;19972;-72
2022/08/29 15:18:07;;;;;;;;;;;;;;;38.93;15.71;100796.03;4992822;28;20051;-72
2022/08/29 15:21:10;;;;;;;;;;;;;;;41.14;13.93;100791.00;4992432;28;19933;-76
2022/08/29 15:24:13;;;;;;;;;;;;;;;39.90;15.13;100791.97;4992473;28;19924;-76
2022/08/29 15:27:17;;;;;;;;;;;;;;;41.17;14.03;100778.66;4992827;28;19925;-75
2022/08/29 15:30:22;;;;;;;;;;;;;;;42.25;13.51;100783.41;5016554;28;19968;-76
2022/08/29 15:33:28;;;;;;;;;;;;;;;42.87;12.91;100782.94;5032121;28;20022;-76
2022/08/29 15:36:33;;;;;;;;;;;;;;;42.08;13.08;100788.47;5032164;28;20045;-74
2022/08/29 15:39:40;;;;;;;;;;;;;;;42.12;12.48;100775.81;5031966;28;20007;-76
2022/08/29 15:42:44;;;;;;;;;;;;;;;41.76;12.96;100770.47;5031380;28;20285;-74
2022/08/29 15:45:48;;;;;;;;;;;;;;;42.08;13.38;100771.97;5031444;28;20487;-77
2022/08/29 15:48:51;;;;;;;;;;;;;;;41.73;13.58;100765.56;5031534;28;20395;-73
2022/08/29 15:51:56;;;;;;;;;;;;;;;41.52;13.99;100770.34;5031907;28;20277;-76
2022/08/29 15:54:59;;;;;;;;;;;;;;;39.35;15.14;100771.47;5032209;28;20585;-77
2022/08/29 15:58:03;;;;;;;;;;;;;;;37.88;17.26;100769.06;5019790;28;19928;-77
2022/08/29 16:01:06;;;;;;;;;;;;;;;37.04;17.89;100772.81;5031785;28;19928;-77
2022/08/29 16:04:15;;;;;;;;;;;;;;;35.20;19.29;100782.88;5031237;28;20391;-77
2022/08/29 16:07:18;;;;;;;;;;;;;;;32.27;21.99;100784.47;5031050;28;19920;-76
2022/08/29 16:10:21;;;;;;;;;;;;;;;30.87;23.28;100789.34;5030995;28;19928;-77
2022/08/29 16:13:24;;;;;;;;;;;;;;;30.29;24.48;100777.19;5031518;28;20392;-75
2022/08/29 16:16:31;;;;;;;;;;;;;;;29.38;26.39;100763.88;5031574;28;19924;-75
2022/08/29 16:19:35;;;;;;;;;;;;;;;29.42;25.77;100773.25;5031976;28;19928;-78
2022/08/29 16:22:39;;;;;;;;;;;;;;;28.88;26.46;100768.47;5031139;28;19924;-74
2022/08/29 16:25:42;;;;;;;;;;;;;;;29.26;27.58;100760.09;5030856;28;19924;-76
2022/08/29 16:28:46;;;;;;;;;;;;;;;29.21;27.92;100762.53;5030822;28;19941;-73
2022/08/29 16:31:50;;;;;;;;;;;;;;;28.36;28.11;100764.19;5004360;28;19928;-76